Time;durP1;ratioP1;P1;durP2;ratioP2;P2;SDS_P1;SDS_P2;PMS_P1;PMS_P2;Temp;Humidity;BMP_temperature;BMP_pressure;BME280_temperature;BME280_humidity;BME280_pressure;Samples;Min_cycle;Max_cycle;Signal;HPM_P1;HPM_P2
2022/08/02 00:01:06;;;;;;;5.70;4.70;;;;;;;16.96;87.52;97218.61;110081;1247;69391;-70
2022/08/02 00:03:37;;;;;;;5.50;4.90;;;;;;;16.95;87.51;97219.23;110113;1247;58997;-70
2022/08/02 00:06:08;;;;;;;5.10;4.60;;;;;;;16.94;87.56;97220.03;110027;1247;58958;-70
2022/08/02 00:08:38;;;;;;;4.30;3.90;;;;;;;16.94;86.91;97217.43;110023;1247;70017;-69
2022/08/02 00:11:08;;;;;;;4.50;4.10;;;;;;;16.94;84.59;97217.39;110107;1247;69185;-70
2022/08/02 00:13:37;;;;;;;;;;;;;;;16.94;84.12;97216.94;110102;1247;68074;-69
2022/08/02 00:16:07;;;;;;;4.60;4.10;;;;;;;16.92;86.58;97219.47;110051;1247;58958;-70
2022/08/02 00:18:36;;;;;;;;;;;;;;;16.90;85.59;97219.94;110047;1247;58872;-72
2022/08/02 00:21:08;;;;;;;4.80;4.40;;;;;;;16.89;86.44;97222.05;110044;1247;70694;-70
2022/08/02 00:23:39;;;;;;;3.90;3.50;;;;;;;16.86;88.00;97223.24;110056;1247;68629;-70
2022/08/02 00:26:29;;;;;;;4.70;4.20;;;;;;;16.80;89.20;97223.45;109979;1247;68730;-71
2022/08/02 00:28:58;;;;;;;3.40;3.10;;;;;;;16.73;89.56;97222.90;110071;1247;58950;-69
2022/08/02 00:31:28;;;;;;;;;;;;;;;16.70;86.42;97220.73;109770;1247;58901;-69
2022/08/02 00:33:58;;;;;;;5.10;4.60;;;;;;;16.65;85.52;97220.70;110116;1247;70928;-70
2022/08/02 00:36:50;;;;;;;4.90;4.20;;;;;;;16.62;84.98;97220.24;109957;1248;68609;-70
2022/08/02 00:39:19;;;;;;;5.80;4.40;;;;;;;16.60;85.48;97219.48;110111;1247;69583;-70
2022/08/02 00:42:04;;;;;;;6.10;4.20;;;;;;;16.57;85.97;97213.75;110152;1246;58970;-72
2022/08/02 00:44:33;;;;;;;5.20;4.60;;;;;;;16.56;85.83;97213.70;110148;1247;58861;-72
2022/08/02 00:47:03;;;;;;;5.20;4.30;;;;;;;16.54;86.33;97212.83;110624;1247;69091;-69
2022/08/02 00:49:33;;;;;;;5.70;5.00;;;;;;;16.47;89.20;97217.38;110525;1247;69550;-69
2022/08/02 00:52:05;;;;;;;6.70;6.10;;;;;;;16.45;88.87;97219.74;110138;1245;69225;-69
2022/08/02 00:54:35;;;;;;;7.50;6.80;;;;;;;16.39;89.54;97220.67;110085;1247;59039;-70
2022/08/02 00:57:06;;;;;;;6.80;6.20;;;;;;;16.30;90.16;97222.46;110122;1247;58869;-70
2022/08/02 00:59:35;;;;;;;6.80;5.30;;;;;;;16.22;91.08;97224.42;110144;1247;70719;-70
2022/08/02 01:02:07;;;;;;;5.80;5.30;;;;;;;16.20;90.39;97221.52;111265;1247;68741;-71
2022/08/02 01:04:39;;;;;;;6.30;4.80;;;;;;;16.19;90.13;97229.89;110592;1247;69385;-70
2022/08/02 01:07:09;;;;;;;6.20;4.80;;;;;;;16.18;90.96;97230.61;110157;1247;58938;-70
2022/08/02 01:09:43;;;;;;;5.40;4.50;;;;;;;16.17;90.80;97227.53;110127;1247;58873;-69
2022/08/02 01:12:13;;;;;;;6.00;4.70;;;;;;;16.17;90.99;97227.04;110055;1247;69923;-69
2022/08/02 01:14:50;;;;;;;8.20;6.00;;;;;;;16.15;90.91;97224.59;110163;1247;68919;-71
2022/08/02 01:17:46;;;;;;;6.30;5.70;;;;;;;16.14;90.80;97225.57;110035;1247;68600;-70
2022/08/02 01:21:05;;;;;;;5.50;4.60;;;;;;;16.15;90.30;97221.32;109714;1247;58965;-69
2022/08/02 01:24:01;;;;;;;6.40;5.80;;;;;;;16.13;88.10;97221.66;110071;1248;58954;-70
2022/08/02 01:26:47;;;;;;;5.80;4.30;;;;;;;16.09;86.81;97220.64;110044;1247;69757;-69
2022/08/02 01:29:42;;;;;;;5.50;5.00;;;;;;;16.04;87.44;97228.00;109707;1248;69341;-69
2022/08/02 01:32:18;;;;;;;5.20;4.70;;;;;;;15.96;91.13;97225.96;110121;1247;68466;-70
2022/08/02 01:34:55;;;;;;;5.30;4.80;;;;;;;15.87;92.72;97223.79;110099;1246;58942;-69
2022/08/02 01:37:29;;;;;;;5.80;5.20;;;;;;;15.82;92.53;97224.02;110075;1247;58926;-69
2022/08/02 01:40:07;;;;;;;5.50;5.00;;;;;;;15.77;93.02;97223.77;110103;1247;70870;-70
2022/08/02 01:42:45;;;;;;;6.30;5.60;;;;;;;15.74;93.32;97222.45;110116;1247;68506;-70
2022/08/02 01:45:18;;;;;;;6.40;5.10;;;;;;;15.70;92.12;97220.06;110151;1247;68959;-70
2022/08/02 01:47:50;;;;;;;5.20;4.60;;;;;;;15.67;91.63;97220.20;110072;1246;59317;-72
2022/08/02 01:50:31;;;;;;;6.10;5.30;;;;;;;15.64;90.91;97223.42;110198;1247;58871;-69
2022/08/02 01:53:07;;;;;;;6.90;5.70;;;;;;;15.62;90.96;97221.00;110147;1247;70746;-71
2022/08/02 01:55:44;;;;;;;5.80;5.20;;;;;;;15.62;90.76;97219.26;110096;1248;69419;-69
2022/08/02 01:58:33;;;;;;;7.10;5.50;;;;;;;15.62;89.81;97218.35;110128;1247;68661;-69
2022/08/02 02:01:06;;;;;;;5.80;5.20;;;;;;;15.62;89.50;97219.54;110097;1247;59322;-72
2022/08/02 02:03:39;;;;;;;5.40;4.90;;;;;;;15.63;89.25;97217.58;110168;1246;58957;-70
2022/08/02 02:06:11;;;;;;;7.80;6.30;;;;;;;15.63;89.99;97221.89;110073;1247;70804;-68
2022/08/02 02:08:43;;;;;;;7.20;6.50;;;;;;;15.62;89.86;97214.51;110076;1247;69231;-70
2022/08/02 02:11:15;;;;;;;6.50;5.40;;;;;;;15.59;89.29;97212.34;109947;1247;68422;-69
2022/08/02 02:14:10;;;;;;;6.00;5.30;;;;;;;15.57;88.72;97214.93;110139;1247;58875;-69
2022/08/02 02:16:45;;;;;;;6.90;5.40;;;;;;;15.57;88.92;97220.59;110047;1247;58854;-70
2022/08/02 02:19:19;;;;;;;6.20;5.20;;;;;;;15.56;88.89;97217.70;110039;1247;69934;-69
2022/08/02 02:21:52;;;;;;;5.90;5.30;;;;;;;15.55;89.26;97219.54;110132;1246;69552;-72
2022/08/02 02:24:22;;;;;;;5.90;5.30;;;;;;;15.53;89.40;97218.98;110167;1247;68488;-69
2022/08/02 02:26:53;;;;;;;5.70;4.90;;;;;;;15.51;91.01;97222.33;110059;1247;58932;-71
2022/08/02 02:29:27;;;;;;;5.90;5.30;;;;;;;15.49;90.32;97222.71;110165;1247;58827;-70
2022/08/02 02:32:00;;;;;;;6.90;5.90;;;;;;;15.48;91.71;97223.02;110143;1247;69985;-70
2022/08/02 02:34:38;;;;;;;5.30;4.80;;;;;;;15.45;92.58;97219.60;110200;1247;68503;-69
2022/08/02 02:37:20;;;;;;;6.90;6.10;;;;;;;15.43;91.75;97221.70;110123;1246;69387;-71
2022/08/02 02:39:54;;;;;;;6.60;6.00;;;;;;;15.39;92.51;97218.60;110176;1247;58953;-71
2022/08/02 02:42:29;;;;;;;6.40;5.80;;;;;;;15.35;92.46;97217.63;110143;1247;58909;-71
2022/08/02 02:45:02;;;;;;;7.00;6.20;;;;;;;15.28;93.06;97219.26;110223;1247;70800;-70
2022/08/02 02:47:35;;;;;;;7.60;6.50;;;;;;;15.21;92.38;97218.69;110074;1247;68634;-69
2022/08/02 02:50:11;;;;;;;8.80;6.50;;;;;;;15.18;92.77;97217.12;110070;1247;69400;-72
2022/08/02 02:52:43;;;;;;;5.40;4.90;;;;;;;15.17;93.64;97224.38;110095;1247;58892;-71
2022/08/02 02:55:17;;;;;;;6.50;5.30;;;;;;;15.16;91.28;97224.46;110237;1246;58919;-70
2022/08/02 02:57:48;;;;;;;7.90;5.70;;;;;;;15.16;89.85;97224.86;110395;1246;70666;-71
2022/08/02 03:01:26;;;;;;;5.90;5.20;;;;;;;15.13;89.69;97229.83;110370;1246;69702;-72
2022/08/02 03:03:12;;;;;;;7.10;6.30;;;;;;;15.13;91.67;97235.81;110291;1247;68501;-70
2022/08/02 03:05:42;;;;;;;6.30;5.00;;;;;;;15.14;93.58;97237.49;110142;1247;58920;-70
2022/08/02 03:08:13;;;;;;;6.50;5.70;;;;;;;15.16;94.03;97240.98;110209;1247;58871;-70
2022/08/02 03:10:44;;;;;;;4.50;4.10;;;;;;;15.17;93.55;97240.90;110246;1247;69788;-70
2022/08/02 03:13:16;;;;;;;7.50;6.70;;;;;;;15.19;93.75;97239.48;110187;1246;69401;-70
2022/08/02 03:15:47;;;;;;;8.70;7.80;;;;;;;15.22;95.24;97242.71;110196;1247;69436;-70
2022/08/02 03:18:30;;;;;;;6.50;5.90;;;;;;;15.23;96.27;97245.59;110170;1247;59334;-71
2022/08/02 03:21:02;;;;;;;5.50;4.90;;;;;;;15.26;94.97;97246.19;110217;1247;58890;-70
2022/08/02 03:23:31;;;;;;;6.80;6.10;;;;;;;15.30;95.37;97253.15;110126;1247;70133;-69
2022/08/02 03:26:01;;;;;;;;;;;;;;;15.34;95.93;97255.61;110254;1246;69372;-69
2022/08/02 03:28:32;;;;;;;7.40;5.80;;;;;;;15.39;96.10;97257.11;110212;1245;68632;-69
2022/08/02 03:31:01;;;;;;;7.40;6.30;;;;;;;15.44;95.67;97250.30;110147;1247;59309;-70
2022/08/02 03:33:32;;;;;;;7.60;6.60;;;;;;;15.48;95.81;97247.27;110191;1247;58940;-69
2022/08/02 03:36:07;;;;;;;6.30;5.20;;;;;;;15.51;95.47;97247.98;110268;1247;70021;-70
2022/08/02 03:38:38;;;;;;;6.10;5.00;;;;;;;15.55;95.08;97248.69;110207;1247;69534;-69
2022/08/02 03:41:12;;;;;;;6.60;5.90;;;;;;;15.59;94.70;97246.55;110075;1247;68903;-70
2022/08/02 03:43:43;;;;;;;6.70;6.10;;;;;;;15.62;94.11;97249.08;110348;1247;58925;-70
2022/08/02 03:46:17;;;;;;;6.20;5.60;;;;;;;15.65;93.90;97250.89;110148;1247;58834;-70
2022/08/02 03:48:48;;;;;;;8.30;7.00;;;;;;;15.69;93.77;97252.61;110297;1246;70834;-69
2022/08/02 03:51:19;;;;;;;6.40;5.80;;;;;;;15.72;93.90;97257.77;110157;1246;69215;-70
2022/08/02 03:53:49;;;;;;;7.30;6.10;;;;;;;15.74;94.58;97257.41;110149;1247;69391;-71
2022/08/02 03:56:18;;;;;;;8.50;6.70;;;;;;;15.78;95.28;97262.30;110238;1247;59364;-71
2022/08/02 03:58:47;;;;;;;10.60;6.30;;;;;;;15.83;95.33;97267.65;110486;1247;58906;-72
2022/08/02 04:01:17;;;;;;;8.40;7.10;;;;;;;15.87;95.41;97271.71;110323;1247;70058;-70
2022/08/02 04:03:46;;;;;;;7.40;6.20;;;;;;;15.90;94.84;97271.13;110345;1247;68621;-70
2022/08/02 04:06:15;;;;;;;7.00;5.90;;;;;;;15.94;94.49;97270.58;110488;1247;68679;-69
2022/08/02 04:08:55;;;;;;;6.90;6.20;;;;;;;16.00;94.22;97269.49;110216;1247;58940;-69
2022/08/02 04:11:30;;;;;;;7.30;6.50;;;;;;;16.07;94.14;97271.63;110134;1247;58999;-70
2022/08/02 04:14:02;;;;;;;7.60;6.90;;;;;;;16.14;93.78;97272.17;110216;1247;71411;-70
2022/08/02 04:16:39;;;;;;;7.70;6.90;;;;;;;16.20;91.96;97266.52;110143;1247;69297;-68
2022/08/02 04:19:14;;;;;;;6.50;5.90;;;;;;;16.27;91.79;97271.54;110353;1247;69426;-69
2022/08/02 04:21:47;;;;;;;7.30;6.60;;;;;;;16.37;91.45;97270.86;110153;1247;58889;-69
2022/08/02 04:24:26;;;;;;;7.50;6.80;;;;;;;16.43;90.30;97271.08;110155;1246;58910;-69
2022/08/02 04:26:58;;;;;;;8.30;7.50;;;;;;;16.51;89.77;97269.08;110333;1247;70766;-69
2022/08/02 04:29:48;;;;;;;6.90;6.20;;;;;;;16.63;89.30;97273.86;110132;1246;69491;-69
2022/08/02 04:32:18;;;;;;;10.20;8.60;;;;;;;16.74;88.38;97275.69;110119;1247;69241;-72
2022/08/02 04:34:47;;;;;;;;;;;;;;;16.84;87.38;97273.37;110160;1247;58888;-72
2022/08/02 04:37:37;;;;;;;8.00;6.80;;;;;;;16.90;87.24;97274.14;110182;1247;59219;-72
2022/08/02 04:40:28;;;;;;;8.30;7.50;;;;;;;17.00;87.06;97280.20;110120;1247;69935;-72
2022/08/02 04:42:57;;;;;;;;;;;;;;;17.00;86.37;97276.34;110072;1248;67675;-70
2022/08/02 04:45:28;;;;;;;7.90;7.20;;;;;;;17.06;87.13;97276.05;109807;1248;68495;-71
2022/08/02 04:47:57;;;;;;;7.80;6.90;;;;;;;17.15;86.71;97275.16;110133;1247;58942;-71
2022/08/02 04:50:33;;;;;;;8.60;6.40;;;;;;;17.23;86.44;97276.79;110143;1247;58897;-71
2022/08/02 04:53:02;;;;;;;;;;;;;;;17.31;86.49;97280.02;110460;1247;69964;-68
2022/08/02 04:55:31;;;;;;;7.50;6.80;;;;;;;17.39;86.03;97284.04;110292;1247;68719;-69
2022/08/02 04:58:00;;;;;;;8.30;7.20;;;;;;;17.41;85.70;97284.98;110250;1247;69419;-70
2022/08/02 05:00:41;;;;;;;6.60;5.90;;;;;;;17.45;85.42;97289.66;110244;1247;58896;-69
2022/08/02 05:03:10;;;;;;;7.60;5.40;;;;;;;17.49;85.29;97286.08;110318;1247;58840;-70
2022/08/02 05:05:39;;;;;;;6.10;5.50;;;;;;;17.55;85.01;97290.80;110261;1246;70639;-72
2022/08/02 05:08:09;;;;;;;5.80;5.20;;;;;;;17.59;84.95;97290.88;110236;1247;69261;-71
2022/08/02 05:10:38;;;;;;;5.90;5.30;;;;;;;17.66;84.57;97292.66;110250;1247;69414;-69
2022/08/02 05:13:07;;;;;;;6.90;5.20;;;;;;;17.78;84.15;97287.55;110224;1247;58901;-70
2022/08/02 05:15:36;;;;;;;5.80;5.20;;;;;;;17.94;83.72;97287.80;110262;1247;58910;-68
2022/08/02 05:18:05;;;;;;;7.50;6.50;;;;;;;18.13;83.36;97288.74;110233;1247;70689;-74
2022/08/02 05:20:34;;;;;;;7.10;6.40;;;;;;;18.16;80.46;97288.69;110305;1247;69329;-70
2022/08/02 05:23:03;;;;;;;6.90;6.20;;;;;;;18.26;80.88;97288.81;110230;1247;69529;-70
2022/08/02 05:25:32;;;;;;;7.40;6.60;;;;;;;18.33;80.10;97292.85;110189;1247;58970;-70
2022/08/02 05:28:01;;;;;;;4.90;4.30;;;;;;;18.36;80.27;97294.66;109894;1246;58918;-70
2022/08/02 05:30:34;;;;;;;6.00;5.50;;;;;;;18.38;79.82;97298.52;110133;1247;70544;-70
2022/08/02 05:33:04;;;;;;;5.80;5.20;;;;;;;18.39;79.52;97302.65;110231;1247;69503;-69
2022/08/02 05:35:33;;;;;;;4.80;4.00;;;;;;;18.52;80.87;97306.70;110273;1247;68638;-70
2022/08/02 05:38:03;;;;;;;6.80;6.10;;;;;;;18.71;79.86;97306.91;110170;1247;58882;-70
2022/08/02 05:40:38;;;;;;;8.60;5.50;;;;;;;18.83;79.73;97310.06;110155;1247;58882;-70
2022/08/02 05:43:22;;;;;;;6.50;5.90;;;;;;;18.92;79.21;97310.57;110182;1247;71154;-68
2022/08/02 05:45:52;;;;;;;5.90;5.30;;;;;;;19.11;78.42;97311.88;110186;1247;69438;-70
2022/08/02 05:48:21;;;;;;;5.60;4.60;;;;;;;19.38;77.39;97314.27;110269;1247;69419;-69
2022/08/02 05:51:03;;;;;;;5.70;5.20;;;;;;;19.75;75.22;97313.98;110183;1247;58808;-69
2022/08/02 05:53:49;;;;;;;7.00;5.60;;;;;;;20.01;73.93;97316.88;110205;1247;58924;-70
2022/08/02 05:56:23;;;;;;;8.40;5.50;;;;;;;20.12;73.98;97318.65;110199;1245;69972;-70
2022/08/02 05:58:59;;;;;;;5.20;4.70;;;;;;;20.25;73.72;97322.50;110389;1247;68450;-71
2022/08/02 06:01:38;;;;;;;6.10;5.00;;;;;;;20.24;72.38;97326.15;110285;1247;68706;-71
2022/08/02 06:04:08;;;;;;;;;;;;;;;20.29;72.10;97326.78;110152;1247;58922;-72
2022/08/02 06:06:43;;;;;;;4.50;3.90;;;;;;;20.26;71.43;97327.34;110302;1247;58879;-70
2022/08/02 06:09:19;;;;;;;5.00;4.50;;;;;;;20.39;71.75;97328.52;110155;1247;70529;-73
2022/08/02 06:11:58;;;;;;;5.10;4.60;;;;;;;20.54;71.66;97335.83;110143;1247;69433;-73
2022/08/02 06:14:40;;;;;;;4.70;4.00;;;;;;;20.70;70.51;97338.17;110277;1247;69937;-73
2022/08/02 06:17:10;;;;;;;5.50;4.40;;;;;;;20.86;69.71;97336.73;110186;1247;58951;-72
2022/08/02 06:19:41;;;;;;;4.90;4.10;;;;;;;21.19;70.74;97344.77;110372;1247;58882;-72
2022/08/02 06:22:19;;;;;;;5.50;4.90;;;;;;;21.37;67.01;97345.89;110076;1247;71138;-72
2022/08/02 06:25:05;;;;;;;4.90;4.40;;;;;;;21.42;67.09;97342.58;110159;1247;69441;-72
2022/08/02 06:27:40;;;;;;;6.90;6.10;;;;;;;21.40;66.66;97344.09;110125;1247;68725;-72
2022/08/02 06:30:09;;;;;;;6.00;5.40;;;;;;;21.30;66.93;97339.70;110119;1247;58990;-72
2022/08/02 06:32:39;;;;;;;5.80;4.40;;;;;;;21.29;67.54;97341.77;110110;1247;58878;-72
2022/08/02 06:35:08;;;;;;;;;;;;;;;21.36;67.60;97341.51;110120;1247;70774;-73
2022/08/02 06:37:58;;;;;;;5.30;4.80;;;;;;;21.38;67.01;97339.15;110165;1247;68607;-74
2022/08/02 06:40:35;;;;;;;5.70;4.90;;;;;;;21.43;66.62;97338.05;109969;1247;69478;-73
2022/08/02 06:43:22;;;;;;;4.70;4.30;;;;;;;21.53;66.23;97339.51;110042;1247;58864;-73
2022/08/02 06:45:51;;;;;;;5.80;5.20;;;;;;;21.73;66.76;97342.58;110077;1247;58863;-75
2022/08/02 06:48:19;;;;;;;6.50;5.80;;;;;;;21.72;64.89;97344.13;110078;1247;70767;-76
2022/08/02 06:50:48;;;;;;;6.00;5.20;;;;;;;22.08;64.17;97344.96;110083;1247;68559;-75
2022/08/02 06:53:17;;;;;;;5.80;5.20;;;;;;;22.60;63.40;97336.81;110082;1247;69306;-75
2022/08/02 06:55:46;;;;;;;6.20;5.40;;;;;;;22.59;61.42;97337.88;110099;1247;58976;-75
2022/08/02 06:58:15;;;;;;;4.60;3.80;;;;;;;22.60;61.80;97341.42;110043;1248;58882;-74
2022/08/02 07:00:44;;;;;;;4.30;3.60;;;;;;;22.91;62.64;97339.80;110187;1247;70605;-75
2022/08/02 07:03:12;;;;;;;7.20;5.30;;;;;;;22.97;61.21;97339.06;110265;1247;68766;-76
2022/08/02 07:05:46;;;;;;;4.80;4.40;;;;;;;22.52;62.19;97339.80;110060;1244;69392;-76
2022/08/02 07:08:15;;;;;;;4.30;3.90;;;;;;;22.57;63.39;97344.99;110313;1246;58876;-75
2022/08/02 07:10:44;;;;;;;5.10;4.00;;;;;;;22.72;62.88;97341.23;110687;1246;58867;-73
2022/08/02 07:13:13;;;;;;;3.80;2.70;;;;;;;22.88;62.88;97339.27;110513;1247;69791;-75
2022/08/02 07:15:42;;;;;;;4.40;3.30;;;;;;;23.28;61.02;97337.39;110228;1247;69288;-76
2022/08/02 07:18:16;;;;;;;6.30;4.30;;;;;;;23.70;58.26;97339.71;110001;1248;70187;-74
2022/08/02 07:20:45;;;;;;;3.40;3.10;;;;;;;23.99;58.91;97337.08;110155;1247;58932;-76
2022/08/02 07:23:14;;;;;;;4.30;3.90;;;;;;;24.26;58.76;97337.02;110040;1247;58889;-74
2022/08/02 07:25:43;;;;;;;3.70;3.30;;;;;;;24.30;57.95;97334.83;110030;1248;70774;-75
2022/08/02 07:28:31;;;;;;;3.80;3.50;;;;;;;24.23;56.15;97336.69;109941;1250;68464;-74
2022/08/02 07:31:01;;;;;;;4.00;3.70;;;;;;;24.41;58.41;97335.09;110020;1247;68938;-75
2022/08/02 07:33:30;;;;;;;3.80;3.40;;;;;;;24.57;58.27;97336.30;110104;1248;58932;-74
2022/08/02 07:36:08;;;;;;;4.00;3.60;;;;;;;24.59;58.11;97338.44;110064;1247;58875;-74
2022/08/02 07:38:49;;;;;;;4.90;4.40;;;;;;;24.77;57.79;97340.33;110012;1250;71108;-75
2022/08/02 07:41:20;;;;;;;4.50;4.00;;;;;;;24.77;56.90;97339.95;110016;1248;69493;-74
2022/08/02 07:43:50;;;;;;;5.40;4.40;;;;;;;24.70;56.52;97341.59;109973;1247;69238;-75
2022/08/02 07:46:19;;;;;;;4.60;4.10;;;;;;;24.98;55.87;97344.27;110113;1247;58795;-75
2022/08/02 07:48:47;;;;;;;4.60;4.20;;;;;;;25.08;56.47;97338.84;110006;1248;58858;-75
2022/08/02 07:51:16;;;;;;;4.80;3.60;;;;;;;25.02;56.17;97340.23;110097;1248;70783;-75
2022/08/02 07:53:45;;;;;;;4.50;3.00;;;;;;;25.09;55.90;97342.98;110089;1248;68502;-75
2022/08/02 07:56:29;;;;;;;3.40;3.00;;;;;;;25.14;55.62;97342.89;110101;1248;69249;-77
2022/08/02 07:58:58;;;;;;;4.00;3.50;;;;;;;25.21;55.72;97339.64;109976;1247;59744;-76
2022/08/02 08:01:27;;;;;;;4.10;3.70;;;;;;;24.93;54.46;97340.14;110056;1248;59745;-74
2022/08/02 08:03:56;;;;;;;3.60;3.00;;;;;;;24.86;55.15;97345.19;110010;1248;72206;-74
2022/08/02 08:06:24;;;;;;;3.20;2.90;;;;;;;24.75;55.82;97345.91;109961;1249;69358;-74
2022/08/02 08:08:57;;;;;;;3.60;3.20;;;;;;;24.68;56.45;97345.77;109777;1250;68670;-75
2022/08/02 08:11:26;;;;;;;3.90;3.20;;;;;;;24.63;56.51;97343.50;110006;1247;59718;-75
2022/08/02 08:13:55;;;;;;;3.70;3.00;;;;;;;24.59;56.25;97344.58;110107;1247;59680;-75
2022/08/02 08:16:25;;;;;;;3.90;3.20;;;;;;;24.51;55.75;97343.23;110203;1247;72081;-74
2022/08/02 08:18:55;;;;;;;3.90;3.20;;;;;;;24.41;56.32;97344.63;110178;1247;69277;-77
2022/08/02 08:21:24;;;;;;;4.00;3.60;;;;;;;24.21;57.07;97351.31;110139;1247;69205;-75
2022/08/02 08:23:53;;;;;;;4.00;3.70;;;;;;;24.17;57.24;97352.23;109875;1250;59740;-76
2022/08/02 08:26:22;;;;;;;3.40;3.10;;;;;;;24.04;56.97;97345.44;109964;1248;59776;-77
2022/08/02 08:28:51;;;;;;;3.30;3.00;;;;;;;23.99;57.56;97348.03;110050;1247;71545;-76
2022/08/02 08:31:20;;;;;;;4.60;3.70;;;;;;;23.92;58.06;97352.80;110033;1247;69386;-78
2022/08/02 08:33:49;;;;;;;3.80;3.40;;;;;;;23.86;58.50;97354.39;110228;1246;69784;-76
2022/08/02 08:36:20;;;;;;;4.60;3.60;;;;;;;23.77;58.26;97353.68;110075;1247;59757;-75
2022/08/02 08:38:50;;;;;;;3.60;3.20;;;;;;;23.75;58.41;97351.12;110295;1247;59658;-75
2022/08/02 08:41:20;;;;;;;3.20;2.90;;;;;;;23.94;58.04;97348.10;110094;1247;71654;-77
2022/08/02 08:43:49;;;;;;;3.40;3.10;;;;;;;24.34;56.65;97346.60;110257;1247;69243;-79
2022/08/02 08:46:29;;;;;;;4.60;3.30;;;;;;;24.97;56.24;97345.83;110132;1247;70067;-75
2022/08/02 08:49:02;;;;;;;3.20;2.40;;;;;;;25.64;54.30;97349.52;110223;1247;59687;-75
2022/08/02 08:51:37;;;;;;;3.40;3.10;;;;;;;25.96;52.77;97345.75;110095;1248;59755;-74
2022/08/02 08:54:11;;;;;;;3.10;2.70;;;;;;;25.88;51.30;97350.33;110190;1248;70804;-76
2022/08/02 08:56:41;;;;;;;3.60;3.30;;;;;;;26.10;52.45;97349.11;110203;1247;69383;-76
2022/08/02 08:59:10;;;;;;;3.30;3.00;;;;;;;26.32;51.43;97353.61;110270;1247;69083;-76
2022/08/02 09:01:39;;;;;;;3.50;3.20;;;;;;;26.35;50.60;97352.90;110184;1247;59702;-75
2022/08/02 09:04:18;;;;;;;3.70;2.80;;;;;;;26.26;50.28;97353.46;110235;1247;59681;-75
2022/08/02 09:06:47;;;;;;;2.80;2.60;;;;;;;26.31;51.21;97356.91;110090;1247;71909;-74
2022/08/02 09:09:16;;;;;;;2.70;2.50;;;;;;;26.17;50.70;97353.95;110270;1247;69190;-75
2022/08/02 09:11:45;;;;;;;2.90;2.60;;;;;;;26.10;51.44;97353.33;110053;1247;69946;-75
2022/08/02 09:14:26;;;;;;;3.20;2.40;;;;;;;25.87;51.32;97352.15;110009;1249;59746;-77
2022/08/02 09:17:07;;;;;;;3.00;2.70;;;;;;;26.28;51.05;97352.14;110142;1246;59745;-77
2022/08/02 09:19:36;;;;;;;3.20;2.60;;;;;;;26.80;50.39;97343.32;110194;1247;70780;-74
2022/08/02 09:22:14;;;;;;;3.90;2.70;;;;;;;27.32;49.42;97343.09;110161;1247;68222;-77
2022/08/02 09:24:46;;;;;;;4.20;2.40;;;;;;;27.45;48.13;97346.36;110102;1246;69939;-76
2022/08/02 09:27:17;;;;;;;3.20;2.90;;;;;;;27.48;48.41;97344.40;110166;1247;59751;-76
2022/08/02 09:29:49;;;;;;;2.50;2.30;;;;;;;27.19;47.32;97346.49;110193;1248;59700;-76
2022/08/02 09:32:45;;;;;;;2.30;2.10;;;;;;;26.81;45.22;97344.55;110201;1247;71674;-75
2022/08/02 09:35:35;;;;;;;2.80;2.60;;;;;;;27.25;45.24;97339.71;110216;1247;68930;-76
2022/08/02 09:38:23;;;;;;;2.40;2.20;;;;;;;28.24;45.09;97345.60;110203;1247;69037;-76
2022/08/02 09:40:54;;;;;;;2.70;2.20;;;;;;;28.85;45.34;97341.99;110164;1246;59685;-77
2022/08/02 09:43:33;;;;;;;;;;;;;;;29.11;43.92;97344.45;110228;1247;59688;-75
2022/08/02 09:46:13;;;;;;;2.60;2.20;;;;;;;28.97;42.94;97345.81;110156;1247;71630;-77
2022/08/02 09:49:02;;;;;;;2.30;2.00;;;;;;;28.44;42.67;97344.27;110146;1248;69483;-75
2022/08/02 09:51:37;;;;;;;2.30;2.10;;;;;;;27.99;43.66;97345.92;110123;1247;69377;-76
2022/08/02 09:54:08;;;;;;;2.00;1.90;;;;;;;27.76;44.87;97348.61;110174;1247;59678;-76
2022/08/02 09:56:45;;;;;;;3.30;2.10;;;;;;;27.47;45.22;97342.88;110187;1247;59684;-74
2022/08/02 09:59:16;;;;;;;2.40;2.20;;;;;;;27.27;46.18;97338.80;110116;1247;71813;-75
2022/08/02 10:01:46;;;;;;;2.10;1.90;;;;;;;26.97;46.23;97339.61;110259;1247;69209;-76
2022/08/02 10:04:31;;;;;;;3.40;2.40;;;;;;;26.40;46.88;97347.64;110143;1248;69380;-74
2022/08/02 10:07:21;;;;;;;2.60;2.00;;;;;;;26.39;47.48;97343.37;110035;1249;59728;-77
2022/08/02 10:09:51;;;;;;;2.40;2.20;;;;;;;26.80;45.88;97336.46;110289;1248;59767;-76
2022/08/02 10:12:23;;;;;;;2.40;2.20;;;;;;;26.84;44.34;97333.27;110244;1247;70623;-77
2022/08/02 10:14:52;;;;;;;2.50;2.00;;;;;;;27.58;43.16;97326.26;110159;1247;69239;-77
2022/08/02 10:17:20;;;;;;;2.10;1.90;;;;;;;27.47;43.42;97324.09;110241;1247;68671;-75
2022/08/02 10:19:49;;;;;;;2.00;1.80;;;;;;;27.91;43.16;97323.98;110237;1249;59722;-77
2022/08/02 10:22:33;;;;;;;2.00;1.80;;;;;;;27.96;43.15;97322.61;110152;1247;59704;-76
2022/08/02 10:25:03;;;;;;;2.60;2.20;;;;;;;27.76;43.75;97322.23;110132;1247;72195;-76
2022/08/02 10:27:35;;;;;;;2.50;2.00;;;;;;;27.55;43.89;97326.38;110149;1247;69404;-75
2022/08/02 10:30:26;;;;;;;2.60;2.20;;;;;;;27.38;45.03;97325.61;110200;1247;68535;-75
2022/08/02 10:32:58;;;;;;;2.10;1.80;;;;;;;27.27;44.86;97323.45;110047;1247;59714;-74
2022/08/02 10:35:31;;;;;;;2.40;2.00;;;;;;;27.52;45.17;97323.50;110160;1247;59697;-77
2022/08/02 10:38:06;;;;;;;2.10;1.90;;;;;;;27.71;44.51;97323.07;110227;1247;71546;-77
2022/08/02 10:40:54;;;;;;;2.40;1.70;;;;;;;27.99;44.00;97322.38;110154;1248;69570;-78
2022/08/02 10:43:35;;;;;;;3.00;2.00;;;;;;;28.36;44.19;97318.52;110158;1247;69491;-77
2022/08/02 10:46:22;;;;;;;1.90;1.70;;;;;;;29.01;43.43;97312.66;110198;1247;59689;-77
2022/08/02 10:49:08;;;;;;;1.80;1.60;;;;;;;29.47;39.57;97310.81;110098;1247;59648;-77
2022/08/02 10:52:08;;;;;;;2.10;1.90;;;;;;;29.61;39.20;97306.77;110167;1247;72192;-77
2022/08/02 10:55:10;;;;;;;2.00;1.70;;;;;;;29.40;36.72;97301.64;110132;1246;69413;-76
2022/08/02 10:58:17;;;;;;;2.80;2.00;;;;;;;29.80;38.25;97298.56;110152;1250;68498;-78
2022/08/02 11:00:46;;;;;;;3.00;1.70;;;;;;;30.17;38.15;97295.05;109766;1248;59760;-75
2022/08/02 11:03:27;;;;;;;1.90;1.60;;;;;;;30.73;37.53;97297.80;110192;1247;59722;-77
2022/08/02 11:06:11;;;;;;;2.00;1.60;;;;;;;31.16;36.42;97295.88;110144;1247;72815;-77
2022/08/02 11:09:31;;;;;;;1.50;1.40;;;;;;;31.59;36.05;97300.24;110227;1250;68414;-78
2022/08/02 11:12:06;;;;;;;1.60;1.40;;;;;;;32.12;34.90;97300.48;110269;1250;69243;-76
2022/08/02 11:14:40;;;;;;;2.00;1.70;;;;;;;32.07;32.58;97297.16;110090;1248;59726;-77
2022/08/02 11:17:17;;;;;;;1.90;1.60;;;;;;;31.67;33.32;97298.63;110094;1248;59683;-76
2022/08/02 11:20:11;;;;;;;1.20;1.10;;;;;;;31.85;33.13;97296.82;110056;1248;71643;-75
2022/08/02 11:22:41;;;;;;;2.00;1.60;;;;;;;32.40;31.52;97296.54;110205;1247;68865;-76
2022/08/02 11:25:22;;;;;;;1.20;1.10;;;;;;;32.24;31.30;97293.64;110225;1247;67819;-76
2022/08/02 11:27:58;;;;;;;2.20;1.50;;;;;;;33.01;31.82;97297.92;110069;1247;59736;-76
2022/08/02 11:30:27;;;;;;;2.40;1.40;;;;;;;33.22;31.71;97290.07;110218;1247;59731;-76
2022/08/02 11:32:57;;;;;;;1.70;1.50;;;;;;;33.10;31.37;97284.13;110001;1247;71391;-75
2022/08/02 11:35:37;;;;;;;2.70;1.90;;;;;;;32.66;31.26;97286.69;110141;1250;68591;-76
2022/08/02 11:38:18;;;;;;;1.70;1.50;;;;;;;32.08;31.89;97288.85;109997;1248;69197;-76
2022/08/02 11:40:48;;;;;;;1.50;1.30;;;;;;;31.76;32.48;97294.63;110040;1247;59693;-75
2022/08/02 11:43:26;;;;;;;1.30;1.20;;;;;;;31.38;32.31;97290.89;110090;1247;59681;-76
2022/08/02 11:45:55;;;;;;;1.50;1.30;;;;;;;31.17;31.86;97289.15;110201;1248;71951;-75
2022/08/02 11:48:39;;;;;;;1.40;1.30;;;;;;;31.30;32.19;97283.38;110258;1248;68594;-75
2022/08/02 11:51:15;;;;;;;1.90;1.60;;;;;;;31.43;31.94;97280.55;110143;1247;69443;-75
2022/08/02 11:53:44;;;;;;;1.50;1.40;;;;;;;31.50;30.93;97282.27;110157;1247;59741;-75
2022/08/02 11:56:14;;;;;;;;;;;;;;;31.86;31.31;97279.85;110124;1247;59678;-75
2022/08/02 11:59:09;;;;;;;1.60;1.30;;;;;;;32.41;31.87;97277.66;110152;1247;70527;-77
2022/08/02 12:01:42;;;;;;;2.70;1.70;;;;;;;32.93;31.70;97279.33;110143;1248;67676;-76